Time;durP1;ratioP1;P1;durP2;ratioP2;P2;SDS_P1;SDS_P2;PMS_P1;PMS_P2;Temp;Humidity;BMP_temperature;BMP_pressure;BME280_temperature;BME280_humidity;BME280_pressure;Samples;Min_cycle;Max_cycle;Signal;HPM_P1;HPM_P2
2023/12/21 00:01:04;;;;;;;1.90;0.88;;;22.60;48.90;;;;;;4973761;28;20030;-66
2023/12/21 00:03:29;;;;;;;1.10;0.80;;;22.60;48.90;;;;;;4971048;28;20026;-67
2023/12/21 00:05:55;;;;;;;1.38;0.90;;;22.60;48.90;;;;;;4970749;28;20042;-68
2023/12/21 00:08:20;;;;;;;2.05;1.05;;;22.60;48.90;;;;;;4968572;28;20086;-68
2023/12/21 00:10:46;;;;;;;1.83;0.90;;;22.60;48.90;;;;;;4970548;28;20043;-68
2023/12/21 00:13:11;;;;;;;1.33;0.95;;;22.60;48.90;;;;;;4969987;28;20524;-68
2023/12/21 00:15:37;;;;;;;2.08;0.95;;;22.60;48.90;;;;;;4971374;28;20058;-68
2023/12/21 00:18:02;;;;;;;2.53;1.08;;;22.60;48.90;;;;;;4969391;28;20037;-68
2023/12/21 00:20:28;;;;;;;1.33;0.82;;;22.70;48.90;;;;;;4970037;28;20096;-68
2023/12/21 00:22:53;;;;;;;2.03;0.85;;;22.60;48.90;;;;;;4967734;28;20041;-68
2023/12/21 00:25:19;;;;;;;1.27;0.55;;;22.60;48.90;;;;;;4968512;28;20062;-67
2023/12/21 00:27:44;;;;;;;2.03;0.90;;;22.70;48.90;;;;;;4969840;28;20027;-68
2023/12/21 00:30:10;;;;;;;2.50;1.20;;;22.60;48.90;;;;;;4968033;28;20511;-67
2023/12/21 00:32:35;;;;;;;3.22;1.02;;;22.60;48.90;;;;;;4969599;28;20042;-68
2023/12/21 00:35:01;;;;;;;0.73;0.70;;;22.60;48.90;;;;;;4968166;28;20102;-68
2023/12/21 00:37:26;;;;;;;1.15;0.88;;;22.60;48.90;;;;;;4970300;28;20054;-69
2023/12/21 00:39:52;;;;;;;3.40;0.80;;;22.60;48.90;;;;;;4970090;28;20118;-68
2023/12/21 00:42:17;;;;;;;2.03;0.80;;;22.70;48.90;;;;;;4967634;28;20034;-69
2023/12/21 00:44:43;;;;;;;1.30;0.98;;;22.60;48.80;;;;;;4967648;28;20039;-68
2023/12/21 00:47:09;;;;;;;0.73;0.73;;;22.70;48.90;;;;;;4968820;28;20046;-68
2023/12/21 00:49:34;;;;;;;0.80;0.80;;;22.60;48.90;;;;;;4969459;28;20034;-67
2023/12/21 00:51:59;;;;;;;1.58;0.70;;;22.60;48.80;;;;;;4969399;28;20607;-68
2023/12/21 00:54:25;;;;;;;1.70;0.70;;;22.60;48.90;;;;;;4967406;28;20139;-68
2023/12/21 00:56:50;;;;;;;2.47;1.10;;;22.60;48.80;;;;;;4967667;28;20026;-68
2023/12/21 00:59:16;;;;;;;1.13;0.52;;;22.70;48.90;;;;;;4969594;28;20110;-68
2023/12/21 01:01:42;;;;;;;1.48;0.75;;;22.60;48.80;;;;;;4969235;28;20522;-68
2023/12/21 01:04:07;;;;;;;1.85;0.93;;;22.70;48.80;;;;;;4967998;28;20043;-68
2023/12/21 01:06:36;;;;;;;1.60;0.70;;;22.60;48.80;;;;;;4968899;28;20034;-67
2023/12/21 01:09:03;;;;;;;1.02;0.88;;;22.50;48.90;;;;;;4967326;28;20390;-68
2023/12/21 01:11:28;;;;;;;2.05;0.63;;;22.50;49.00;;;;;;4968896;28;20027;-68
2023/12/21 01:13:54;;;;;;;1.30;0.68;;;22.40;49.10;;;;;;4969054;28;20445;-68
2023/12/21 01:16:19;;;;;;;1.10;0.70;;;22.30;49.40;;;;;;4969423;28;20027;-67
2023/12/21 01:18:44;;;;;;;1.90;0.93;;;22.20;49.50;;;;;;4968799;28;20074;-68
2023/12/21 01:21:10;;;;;;;1.10;0.80;;;22.20;49.70;;;;;;4968927;28;20033;-68
2023/12/21 01:23:36;;;;;;;1.08;0.80;;;22.10;49.80;;;;;;4966815;28;20632;-68
2023/12/21 01:26:01;;;;;;;1.85;1.05;;;22.00;50.00;;;;;;4968335;28;20058;-68
2023/12/21 01:28:26;;;;;;;1.50;0.60;;;21.90;50.00;;;;;;4966250;28;20077;-66
2023/12/21 01:30:52;;;;;;;1.00;0.70;;;21.80;50.10;;;;;;4968994;28;20034;-68
2023/12/21 01:33:17;;;;;;;1.55;1.00;;;21.70;50.30;;;;;;4968162;28;20402;-67
2023/12/21 01:35:43;;;;;;;1.48;0.73;;;21.70;50.40;;;;;;4968690;28;20062;-68
2023/12/21 01:38:08;;;;;;;2.13;0.93;;;21.60;50.40;;;;;;4968691;28;20579;-68
2023/12/21 01:40:34;;;;;;;0.68;0.60;;;21.60;50.60;;;;;;4966597;28;20038;-67
2023/12/21 01:42:59;;;;;;;1.67;0.80;;;21.50;50.60;;;;;;4968442;28;20054;-68
2023/12/21 01:45:25;;;;;;;1.10;0.50;;;21.50;50.70;;;;;;4968203;28;20026;-70
2023/12/21 01:47:51;;;;;;;1.60;0.85;;;21.60;50.70;;;;;;4966559;28;20510;-68
2023/12/21 01:50:17;;;;;;;0.63;0.47;;;21.80;50.20;;;;;;4966830;28;20038;-67
2023/12/21 01:52:44;;;;;;;1.77;0.80;;;22.00;49.70;;;;;;4968443;28;20048;-69
2023/12/21 01:55:12;;;;;;;0.90;0.70;;;22.30;49.20;;;;;;4968390;28;20034;-68
2023/12/21 01:57:38;;;;;;;3.15;0.77;;;22.50;48.80;;;;;;4967348;28;20045;-67
2023/12/21 02:00:04;;;;;;;1.10;0.82;;;22.80;48.50;;;;;;4984608;28;20039;-68
2023/12/21 02:02:29;;;;;;;1.77;0.90;;;23.00;47.90;;;;;;4966797;28;20532;-69
2023/12/21 02:04:55;;;;;;;0.90;0.70;;;23.30;47.70;;;;;;4967635;28;20026;-68
2023/12/21 02:07:20;;;;;;;1.67;0.73;;;23.40;47.40;;;;;;4968370;28;20037;-68
2023/12/21 02:09:46;;;;;;;0.90;0.70;;;23.60;47.20;;;;;;4968132;28;20663;-68
2023/12/21 02:12:11;;;;;;;0.90;0.65;;;23.70;47.00;;;;;;4968416;28;20494;-68
2023/12/21 02:14:37;;;;;;;1.63;0.63;;;23.80;46.70;;;;;;4965696;28;20445;-68
2023/12/21 02:17:06;;;;;;;1.92;0.90;;;23.90;46.60;;;;;;4968310;28;20066;-69
2023/12/21 02:19:32;;;;;;;1.35;0.50;;;24.00;46.40;;;;;;4972679;28;20031;-69
2023/12/21 02:22:01;;;;;;;1.35;0.50;;;24.10;46.40;;;;;;4974314;28;20410;-68
2023/12/21 02:24:27;;;;;;;1.40;0.60;;;24.20;46.40;;;;;;4972917;28;20042;-68
2023/12/21 02:26:52;;;;;;;1.13;0.50;;;24.30;46.10;;;;;;4972880;28;20031;-69
2023/12/21 02:29:18;;;;;;;0.50;0.50;;;24.40;46.00;;;;;;4975963;28;20088;-68
2023/12/21 02:31:43;;;;;;;0.75;0.35;;;24.50;45.90;;;;;;4972352;28;20121;-69
2023/12/21 02:34:09;;;;;;;0.80;0.65;;;24.50;46.00;;;;;;4974668;28;20035;-68
2023/12/21 02:36:34;;;;;;;2.03;0.55;;;24.40;46.00;;;;;;4972724;28;20080;-69
2023/12/21 02:39:00;;;;;;;0.65;0.40;;;24.40;46.20;;;;;;4974456;28;20042;-68
2023/12/21 02:41:25;;;;;;;0.60;0.40;;;24.30;46.20;;;;;;4974483;28;20050;-68
2023/12/21 02:43:51;;;;;;;0.90;0.73;;;24.30;46.30;;;;;;4974627;28;20023;-69
2023/12/21 02:46:19;;;;;;;0.50;0.40;;;24.30;46.50;;;;;;4975266;28;20031;-67
2023/12/21 02:48:44;;;;;;;1.33;0.50;;;24.20;46.60;;;;;;4974352;28;20042;-69
2023/12/21 02:51:10;;;;;;;0.77;0.40;;;24.10;46.90;;;;;;4971496;28;20030;-67
2023/12/21 02:53:36;;;;;;;0.60;0.50;;;24.00;47.00;;;;;;4973881;28;20019;-66
2023/12/21 02:56:02;;;;;;;0.60;0.60;;;23.90;47.10;;;;;;4974549;28;20030;-68
2023/12/21 02:58:28;;;;;;;1.00;0.65;;;23.80;47.30;;;;;;4974276;28;20387;-68
2023/12/21 03:00:53;;;;;;;0.80;0.60;;;23.70;47.50;;;;;;4974709;28;20019;-67
2023/12/21 03:03:19;;;;;;;0.98;0.70;;;23.60;47.60;;;;;;4976216;28;20094;-67
2023/12/21 03:05:46;;;;;;;0.52;0.30;;;23.60;47.80;;;;;;4967553;28;20049;-68
2023/12/21 03:08:11;;;;;;;0.47;0.40;;;23.50;47.90;;;;;;4972434;28;20035;-68
2023/12/21 03:10:36;;;;;;;1.00;0.60;;;23.40;48.10;;;;;;4973179;28;20027;-66
2023/12/21 03:13:02;;;;;;;1.33;0.52;;;23.30;48.10;;;;;;4973337;28;20039;-66
2023/12/21 03:15:27;;;;;;;0.50;0.40;;;23.20;48.30;;;;;;4974377;28;20039;-67
2023/12/21 03:17:53;;;;;;;0.95;0.70;;;23.20;48.50;;;;;;4974647;28;20043;-68
2023/12/21 03:20:18;;;;;;;0.30;0.30;;;23.10;48.40;;;;;;4977888;28;20034;-67
2023/12/21 03:22:44;;;;;;;0.60;0.50;;;23.00;48.60;;;;;;4975558;28;20034;-67
2023/12/21 03:25:09;;;;;;;0.40;0.40;;;22.90;48.60;;;;;;4975972;28;20042;-67
2023/12/21 03:27:36;;;;;;;1.10;0.40;;;22.90;48.80;;;;;;4971679;28;20150;-67
2023/12/21 03:30:01;;;;;;;3.25;0.65;;;22.80;48.80;;;;;;4963441;28;20567;-68
2023/12/21 03:32:27;;;;;;;0.82;0.40;;;22.80;49.00;;;;;;4976311;28;20054;-67
2023/12/21 03:34:52;;;;;;;0.43;0.32;;;22.70;49.00;;;;;;4973334;28;20482;-68
2023/12/21 03:37:18;;;;;;;0.98;0.50;;;22.70;49.10;;;;;;4970977;28;20081;-66
2023/12/21 03:39:43;;;;;;;0.68;0.40;;;22.70;49.10;;;;;;4972058;28;20478;-67
2023/12/21 03:42:09;;;;;;;0.60;0.30;;;22.60;49.20;;;;;;4969892;28;20506;-68
2023/12/21 03:44:34;;;;;;;0.93;0.43;;;22.60;49.30;;;;;;4970518;28;20030;-67
2023/12/21 03:47:00;;;;;;;0.52;0.40;;;22.50;49.30;;;;;;4970193;28;20528;-68
2023/12/21 03:49:28;;;;;;;0.60;0.40;;;22.50;49.40;;;;;;4970492;28;20110;-68
2023/12/21 03:51:55;;;;;;;0.55;0.35;;;22.50;50.10;;;;;;4968272;28;20042;-69
2023/12/21 03:54:20;;;;;;;0.40;0.40;;;22.40;49.50;;;;;;4971044;28;20490;-69
2023/12/21 03:56:46;;;;;;;0.40;0.40;;;22.40;49.50;;;;;;4970220;28;20094;-69
2023/12/21 03:59:11;;;;;;;0.80;0.57;;;22.40;49.60;;;;;;4969618;28;20059;-68
2023/12/21 04:01:37;;;;;;;0.65;0.40;;;22.30;49.60;;;;;;4965829;28;20082;-67
2023/12/21 04:04:02;;;;;;;1.95;0.47;;;22.30;49.60;;;;;;4967257;28;20049;-68
2023/12/21 04:06:28;;;;;;;0.80;0.40;;;22.30;49.70;;;;;;4966901;28;20085;-69
2023/12/21 04:08:54;;;;;;;0.40;0.30;;;22.30;49.70;;;;;;4969000;28;20042;-67
2023/12/21 04:11:20;;;;;;;0.75;0.57;;;22.20;49.70;;;;;;4967573;28;20232;-67
2023/12/21 04:13:48;;;;;;;1.20;0.70;;;22.20;49.70;;;;;;4964136;28;20039;-68
2023/12/21 04:16:14;;;;;;;0.63;0.50;;;22.20;49.80;;;;;;4964509;28;20102;-67
2023/12/21 04:18:39;;;;;;;0.40;0.40;;;22.20;49.80;;;;;;4967504;28;20494;-67
2023/12/21 04:21:08;;;;;;;0.50;0.30;;;22.20;49.80;;;;;;4968021;28;20027;-67
2023/12/21 04:23:34;;;;;;;1.13;0.52;;;22.20;49.80;;;;;;4968841;28;20115;-67
2023/12/21 04:26:00;;;;;;;1.65;0.38;;;22.20;49.60;;;;;;4968953;28;20047;-68
2023/12/21 04:28:25;;;;;;;0.73;0.57;;;22.30;49.50;;;;;;4969414;28;20035;-68
2023/12/21 04:30:51;;;;;;;1.27;0.40;;;22.30;49.30;;;;;;4968522;28;20038;-69
2023/12/21 04:33:16;;;;;;;0.40;0.40;;;22.40;49.20;;;;;;4968545;28;20042;-68
2023/12/21 04:35:45;;;;;;;0.30;0.20;;;22.50;49.00;;;;;;4971005;28;20057;-68
2023/12/21 04:38:14;;;;;;;0.45;0.30;;;22.60;48.90;;;;;;4971479;28;20031;-68
2023/12/21 04:40:39;;;;;;;0.50;0.30;;;22.70;48.80;;;;;;4971218;28;20035;-68
2023/12/21 04:43:08;;;;;;;0.50;0.30;;;22.70;48.50;;;;;;4969060;28;20034;-68
2023/12/21 04:45:33;;;;;;;0.65;0.40;;;22.70;48.50;;;;;;4969199;28;20050;-68
2023/12/21 04:47:59;;;;;;;1.30;0.30;;;22.70;48.50;;;;;;4969746;28;20046;-67
2023/12/21 04:50:24;;;;;;;2.17;0.30;;;22.70;49.10;;;;;;4969626;28;20066;-67
2023/12/21 04:52:51;;;;;;;0.70;0.30;;;22.80;48.50;;;;;;4969126;28;20098;-68
2023/12/21 04:55:17;;;;;;;0.45;0.20;;;22.80;48.50;;;;;;4967780;28;20114;-68
2023/12/21 04:57:43;;;;;;;0.50;0.40;;;22.80;48.50;;;;;;4966746;28;20536;-67
2023/12/21 05:00:09;;;;;;;0.30;0.30;;;22.70;48.50;;;;;;4968935;28;20035;-67
2023/12/21 05:02:34;;;;;;;0.20;0.20;;;22.70;48.40;;;;;;4967985;28;20031;-65
2023/12/21 05:05:00;;;;;;;0.35;0.35;;;22.80;48.50;;;;;;4968430;28;20081;-66
2023/12/21 05:07:26;;;;;;;0.20;0.20;;;22.80;48.50;;;;;;4967461;28;20035;-66
2023/12/21 05:09:51;;;;;;;0.63;0.40;;;22.80;48.40;;;;;;4967250;28;20027;-67
2023/12/21 05:12:17;;;;;;;0.52;0.40;;;22.80;48.50;;;;;;4965218;28;20038;-67
2023/12/21 05:14:42;;;;;;;0.70;0.40;;;22.80;48.50;;;;;;4964236;28;20058;-66
2023/12/21 05:17:08;;;;;;;0.47;0.40;;;22.80;48.40;;;;;;4969384;28;20038;-67
2023/12/21 05:19:34;;;;;;;1.02;0.30;;;22.80;48.40;;;;;;4968405;28;20037;-65
2023/12/21 05:21:59;;;;;;;0.43;0.30;;;22.80;48.40;;;;;;4968893;28;20433;-67
2023/12/21 05:24:25;;;;;;;0.30;0.20;;;22.80;48.40;;;;;;4979118;28;20031;-66
2023/12/21 05:26:50;;;;;;;0.60;0.20;;;22.80;48.40;;;;;;4960993;28;20030;-66
2023/12/21 05:29:16;;;;;;;0.30;0.20;;;22.80;48.40;;;;;;4967029;28;20034;-65
2023/12/21 05:31:44;;;;;;;0.20;0.20;;;22.80;48.30;;;;;;4968407;28;20035;-67
2023/12/21 05:34:09;;;;;;;0.65;0.20;;;22.80;48.40;;;;;;4967954;28;20034;-66
2023/12/21 05:36:35;;;;;;;1.40;0.38;;;22.80;48.40;;;;;;4968371;28;20019;-67
2023/12/21 05:39:01;;;;;;;0.50;0.20;;;22.80;48.30;;;;;;4967422;28;20624;-65
2023/12/21 05:41:26;;;;;;;0.45;0.25;;;22.80;48.30;;;;;;4958416;28;20039;-67
2023/12/21 05:43:52;;;;;;;0.20;0.20;;;22.80;48.90;;;;;;4966241;28;20059;-67
2023/12/21 05:46:18;;;;;;;0.20;0.20;;;22.80;48.30;;;;;;4966898;28;20058;-67
2023/12/21 05:48:43;;;;;;;0.40;0.22;;;22.90;48.30;;;;;;4957921;28;20461;-66
2023/12/21 05:51:09;;;;;;;0.30;0.13;;;22.90;48.30;;;;;;4966206;28;20250;-65
2023/12/21 05:53:34;;;;;;;0.95;0.20;;;22.90;48.20;;;;;;4966600;28;20031;-64
2023/12/21 05:56:00;;;;;;;0.75;0.45;;;22.90;48.20;;;;;;4965998;28;21160;-66
2023/12/21 05:58:25;;;;;;;0.47;0.30;;;23.00;48.20;;;;;;4966221;28;20031;-66
2023/12/21 06:00:51;;;;;;;0.30;0.30;;;23.00;48.20;;;;;;4965400;28;20033;-66
2023/12/21 06:03:16;;;;;;;0.50;0.30;;;23.00;48.20;;;;;;4966286;28;20039;-60
2023/12/21 06:05:42;;;;;;;0.35;0.28;;;23.00;48.10;;;;;;4966668;28;20086;-65
2023/12/21 06:08:07;;;;;;;0.15;0.13;;;23.00;48.10;;;;;;4966136;28;20098;-64
2023/12/21 06:10:33;;;;;;;0.47;0.20;;;23.10;48.10;;;;;;4970781;28;20517;-66
2023/12/21 06:12:59;;;;;;;0.50;0.25;;;23.10;48.00;;;;;;4969323;28;20027;-66
2023/12/21 06:15:25;;;;;;;0.77;0.20;;;23.10;47.90;;;;;;4966369;28;20410;-62
2023/12/21 06:17:50;;;;;;;0.40;0.28;;;23.10;47.90;;;;;;4965027;28;20037;-66
2023/12/21 06:20:16;;;;;;;1.17;0.20;;;23.10;47.90;;;;;;4966263;28;20031;-63
2023/12/21 06:22:41;;;;;;;0.10;0.10;;;23.10;48.00;;;;;;4965060;28;20163;-66
2023/12/21 06:25:07;;;;;;;0.20;0.20;;;23.20;48.00;;;;;;4958572;28;20043;-66
2023/12/21 06:27:33;;;;;;;0.20;0.15;;;23.10;47.80;;;;;;4958897;28;20038;-66
2023/12/21 06:29:58;;;;;;;0.40;0.30;;;23.20;47.80;;;;;;4965531;28;20043;-65
2023/12/21 06:32:24;;;;;;;0.30;0.20;;;23.20;47.80;;;;;;4966089;28;20659;-64
2023/12/21 06:34:50;;;;;;;0.17;0.15;;;23.20;47.70;;;;;;4965716;28;20027;-66
2023/12/21 06:37:15;;;;;;;0.10;0.10;;;23.20;47.70;;;;;;4966300;28;20035;-64
2023/12/21 06:39:41;;;;;;;0.85;0.25;;;23.30;47.70;;;;;;4965562;28;20061;-66
2023/12/21 06:42:06;;;;;;;0.35;0.20;;;23.30;47.70;;;;;;4966640;28;20089;-66
2023/12/21 06:44:32;;;;;;;0.57;0.40;;;23.30;47.60;;;;;;4966433;28;20039;-69
2023/12/21 06:46:57;;;;;;;0.30;0.30;;;23.40;47.60;;;;;;4965275;28;20051;-66
2023/12/21 06:49:23;;;;;;;0.10;0.10;;;23.40;47.60;;;;;;4966621;28;20034;-65
2023/12/21 06:51:48;;;;;;;0.47;0.30;;;23.40;47.50;;;;;;4964441;28;20035;-65
2023/12/21 06:54:14;;;;;;;0.10;0.10;;;23.40;47.40;;;;;;4960933;28;20026;-65
2023/12/21 06:56:39;;;;;;;0.30;0.10;;;23.50;47.40;;;;;;4969047;28;20026;-65
2023/12/21 06:59:05;;;;;;;0.52;0.30;;;23.50;47.40;;;;;;4977064;28;20032;-65
2023/12/21 07:01:30;;;;;;;0.25;0.20;;;23.50;47.30;;;;;;4965156;28;20047;-66
2023/12/21 07:03:57;;;;;;;0.30;0.20;;;23.50;47.30;;;;;;4965713;28;20042;-65
2023/12/21 07:06:25;;;;;;;0.45;0.13;;;23.50;47.30;;;;;;4968091;28;20027;-65
2023/12/21 07:08:51;;;;;;;0.20;0.15;;;23.50;47.30;;;;;;4969544;28;20057;-65
2023/12/21 07:11:17;;;;;;;0.22;0.20;;;23.50;47.20;;;;;;4968084;28;20039;-65
2023/12/21 07:13:43;;;;;;;0.10;0.10;;;23.60;47.30;;;;;;4969849;28;20521;-65
2023/12/21 07:16:08;;;;;;;0.25;0.22;;;23.60;47.30;;;;;;4968975;28;20035;-62
2023/12/21 07:18:34;;;;;;;0.22;0.10;;;23.60;47.30;;;;;;4970319;28;20669;-65
2023/12/21 07:20:59;;;;;;;0.20;0.10;;;23.60;47.30;;;;;;4969271;28;20363;-65
2023/12/21 07:23:25;;;;;;;0.20;0.20;;;23.50;47.30;;;;;;4969248;28;20023;-65
2023/12/21 07:25:50;;;;;;;0.10;0.10;;;23.50;47.40;;;;;;4969361;28;20019;-65
2023/12/21 07:28:16;;;;;;;0.30;0.30;;;23.50;47.40;;;;;;4969615;28;20497;-64
2023/12/21 07:30:42;;;;;;;1.00;0.15;;;23.50;47.40;;;;;;4969381;28;20061;-65
2023/12/21 07:33:08;;;;;;;0.30;0.20;;;23.50;47.40;;;;;;4968335;28;20049;-65
2023/12/21 07:35:34;;;;;;;0.25;0.20;;;23.50;47.50;;;;;;4969943;28;20067;-62
2023/12/21 07:37:59;;;;;;;1.10;0.13;;;23.40;47.50;;;;;;4968706;28;20107;-63
2023/12/21 07:40:24;;;;;;;0.30;0.20;;;23.40;47.60;;;;;;4969232;28;20027;-64
2023/12/21 07:42:50;;;;;;;0.10;0.10;;;23.40;47.60;;;;;;4968904;28;20086;-64
2023/12/21 07:45:15;;;;;;;0.38;0.25;;;23.40;47.70;;;;;;4969064;28;20033;-64
2023/12/21 07:47:41;;;;;;;0.15;0.13;;;23.40;47.70;;;;;;4969493;28;20062;-64
2023/12/21 07:50:07;;;;;;;0.30;0.30;;;23.30;47.70;;;;;;4969056;28;20030;-65
2023/12/21 07:52:32;;;;;;;0.20;0.20;;;23.30;47.80;;;;;;4970398;28;20110;-64
2023/12/21 07:54:58;;;;;;;0.28;0.10;;;23.30;47.80;;;;;;4975299;28;20034;-61
2023/12/21 07:57:23;;;;;;;0.10;0.10;;;23.30;47.90;;;;;;4967843;28;20031;-66
2023/12/21 07:59:49;;;;;;;0.90;0.20;;;23.20;47.90;;;;;;4968686;28;20033;-61
2023/12/21 08:02:15;;;;;;;0.63;0.25;;;23.20;48.00;;;;;;4968309;28;20031;-65
2023/12/21 08:04:41;;;;;;;0.30;0.25;;;23.20;48.00;;;;;;4969306;28;20494;-66
2023/12/21 08:07:06;;;;;;;0.52;0.30;;;23.20;48.00;;;;;;4969594;28;20030;-60
2023/12/21 08:09:32;;;;;;;1.00;0.38;;;23.20;48.00;;;;;;4968914;28;20034;-66
2023/12/21 08:11:57;;;;;;;0.77;0.40;;;23.20;48.00;;;;;;4968177;28;20143;-65
2023/12/21 08:14:26;;;;;;;0.38;0.17;;;23.10;48.10;;;;;;4968860;28;20106;-65
2023/12/21 08:16:52;;;;;;;0.63;0.30;;;23.10;48.10;;;;;;4968684;28;20062;-65
2023/12/21 08:19:18;;;;;;;1.45;0.30;;;23.10;48.10;;;;;;4968873;28;20034;-65
2023/12/21 08:21:43;;;;;;;0.40;0.40;;;23.10;48.20;;;;;;4968425;28;20461;-65
2023/12/21 08:24:10;;;;;;;0.60;0.30;;;23.10;48.20;;;;;;4968944;28;20093;-65
2023/12/21 08:26:35;;;;;;;1.50;0.40;;;23.10;48.20;;;;;;4969688;28;20026;-64
2023/12/21 08:29:01;;;;;;;0.30;0.30;;;23.10;48.20;;;;;;4968447;28;20070;-60
2023/12/21 08:31:28;;;;;;;0.35;0.30;;;23.10;48.20;;;;;;4969136;28;20081;-64
2023/12/21 08:33:54;;;;;;;1.13;0.40;;;23.00;48.10;;;;;;4969170;28;20098;-61
2023/12/21 08:36:19;;;;;;;0.38;0.30;;;23.00;48.10;;;;;;4968542;28;20113;-63
2023/12/21 08:38:45;;;;;;;0.40;0.30;;;23.00;48.20;;;;;;4970225;28;20117;-64
2023/12/21 08:41:11;;;;;;;0.30;0.30;;;23.00;48.20;;;;;;4969376;28;20082;-63
2023/12/21 08:43:36;;;;;;;0.45;0.30;;;23.00;48.20;;;;;;4970942;28;20026;-65
2023/12/21 08:46:03;;;;;;;0.55;0.32;;;23.00;48.20;;;;;;4970472;28;20094;-65
2023/12/21 08:48:29;;;;;;;0.20;0.20;;;23.00;48.30;;;;;;4970696;28;20030;-64
2023/12/21 08:50:54;;;;;;;0.60;0.40;;;22.80;48.20;;;;;;4970628;28;20090;-65
2023/12/21 08:53:20;;;;;;;2.30;0.40;;;22.80;48.40;;;;;;4969957;28;20042;-65
2023/12/21 08:55:45;;;;;;;1.73;0.80;;;22.70;48.50;;;;;;4969158;28;20061;-62
2023/12/21 08:58:11;;;;;;;2.22;0.80;;;22.60;48.70;;;;;;4970516;28;20405;-66
2023/12/21 09:00:36;;;;;;;1.98;0.95;;;22.60;48.90;;;;;;4971429;28;20398;-65
2023/12/21 09:03:03;;;;;;;1.25;0.70;;;22.50;49.00;;;;;;4968834;28;20035;-66
2023/12/21 09:05:28;;;;;;;3.08;0.93;;;22.40;49.20;;;;;;4970636;28;20042;-65
2023/12/21 09:07:54;;;;;;;2.63;0.77;;;22.30;49.30;;;;;;4970241;28;20034;-65
2023/12/21 09:10:20;;;;;;;2.10;1.05;;;22.20;49.30;;;;;;4974915;28;20024;-66
2023/12/21 09:12:45;;;;;;;1.40;0.82;;;22.20;49.50;;;;;;4971818;28;20126;-67
2023/12/21 09:15:11;;;;;;;1.02;0.90;;;22.10;49.60;;;;;;4971376;28;20494;-66
2023/12/21 09:17:37;;;;;;;1.63;0.85;;;22.00;49.60;;;;;;4972604;28;20038;-66
2023/12/21 09:20:04;;;;;;;2.47;1.10;;;22.00;49.80;;;;;;4971340;28;20035;-66
2023/12/21 09:22:29;;;;;;;1.27;0.63;;;21.90;49.90;;;;;;4968300;28;20490;-66
2023/12/21 09:24:55;;;;;;;2.72;0.90;;;21.80;49.90;;;;;;4968963;28;20027;-67
2023/12/21 09:27:21;;;;;;;1.60;1.00;;;21.80;50.00;;;;;;4969096;28;20037;-65
2023/12/21 09:29:46;;;;;;;2.55;1.30;;;21.80;50.00;;;;;;4969868;28;20039;-65
2023/12/21 09:32:11;;;;;;;1.15;0.75;;;21.80;50.00;;;;;;4970227;28;20035;-66
2023/12/21 09:34:38;;;;;;;1.70;0.80;;;21.90;50.00;;;;;;4968557;28;20031;-66
2023/12/21 09:37:04;;;;;;;3.90;1.15;;;21.90;49.70;;;;;;4966335;28;20045;-66
2023/12/21 09:39:30;;;;;;;2.63;1.20;;;22.10;49.40;;;;;;4967069;28;20047;-65
2023/12/21 09:42:00;;;;;;;2.80;1.15;;;22.30;49.00;;;;;;4966633;28;20026;-66
2023/12/21 09:44:29;;;;;;;2.10;1.13;;;22.50;48.60;;;;;;4966100;28;20439;-66
2023/12/21 09:46:56;;;;;;;1.92;0.93;;;22.70;48.20;;;;;;4965137;28;20525;-66
2023/12/21 09:49:22;;;;;;;3.05;0.90;;;22.90;47.80;;;;;;4965738;28;20724;-66
2023/12/21 09:51:49;;;;;;;4.65;1.38;;;23.10;47.60;;;;;;4965860;28;20076;-64
2023/12/21 09:54:17;;;;;;;2.45;0.98;;;23.20;47.30;;;;;;4965227;28;20026;-66
2023/12/21 09:56:46;;;;;;;1.52;1.02;;;23.50;47.10;;;;;;4966589;28;20413;-66
2023/12/21 09:59:13;;;;;;;2.88;1.20;;;23.50;46.90;;;;;;4965866;28;20402;-66
2023/12/21 10:01:39;;;;;;;3.00;1.20;;;23.60;46.70;;;;;;4966642;28;20031;-66
2023/12/21 10:04:07;;;;;;;2.10;1.02;;;23.70;46.60;;;;;;4966002;28;20057;-66
2023/12/21 10:06:32;;;;;;;2.28;1.20;;;23.90;46.40;;;;;;4965875;28;20098;-66
2023/12/21 10:08:57;;;;;;;2.92;1.60;;;23.90;46.30;;;;;;4965694;28;20064;-67
2023/12/21 10:11:23;;;;;;;1.48;0.80;;;24.00;46.30;;;;;;4965737;28;20051;-66
2023/12/21 10:13:49;;;;;;;1.92;0.80;;;24.00;46.10;;;;;;4965817;28;20106;-64
2023/12/21 10:16:16;;;;;;;3.45;1.10;;;24.10;46.00;;;;;;4965817;28;20576;-65
2023/12/21 10:18:42;;;;;;;1.35;0.88;;;24.20;46.00;;;;;;4966122;28;20037;-66
2023/12/21 10:21:08;;;;;;;1.98;1.05;;;24.20;46.00;;;;;;4967687;28;20720;-66
2023/12/21 10:23:33;;;;;;;2.25;1.25;;;24.20;46.00;;;;;;4966614;28;20566;-66
2023/12/21 10:25:59;;;;;;;3.33;1.40;;;24.20;46.10;;;;;;4968905;28;20034;-66
2023/12/21 10:28:25;;;;;;;2.42;1.13;;;24.20;46.10;;;;;;4967302;28;20492;-66
2023/12/21 10:30:54;;;;;;;1.65;1.05;;;24.20;46.10;;;;;;4967413;28;20054;-65
2023/12/21 10:33:20;;;;;;;2.10;1.42;;;24.10;46.10;;;;;;4967552;28;20523;-67
2023/12/21 10:35:46;;;;;;;3.20;1.33;;;24.10;46.20;;;;;;4970055;28;20035;-66
2023/12/21 10:38:11;;;;;;;1.42;0.90;;;24.00;46.30;;;;;;4970045;28;20173;-66
2023/12/21 10:40:37;;;;;;;2.45;1.10;;;24.00;46.60;;;;;;4970702;28;20046;-66
2023/12/21 10:43:03;;;;;;;2.17;1.10;;;23.90;46.60;;;;;;4969573;28;20046;-67
2023/12/21 10:45:29;;;;;;;2.13;1.02;;;23.80;46.80;;;;;;4969563;28;20034;-66
2023/12/21 10:47:56;;;;;;;2.75;1.00;;;23.70;46.90;;;;;;4969266;28;20089;-67
2023/12/21 10:50:23;;;;;;;1.55;0.95;;;23.70;47.10;;;;;;4971902;28;20070;-67
2023/12/21 10:52:51;;;;;;;2.95;1.10;;;23.60;47.20;;;;;;4970034;28;20038;-65
2023/12/21 10:55:17;;;;;;;1.52;0.95;;;23.60;47.40;;;;;;4974310;28;20030;-67
2023/12/21 10:57:44;;;;;;;2.08;1.10;;;23.40;47.50;;;;;;4972037;28;20459;-68
2023/12/21 11:00:12;;;;;;;2.15;1.05;;;23.40;47.60;;;;;;4971027;28;20043;-66
2023/12/21 11:02:46;;;;;;;1.88;1.15;;;23.30;47.70;;;;;;4969819;28;20513;-67
2023/12/21 11:05:19;;;;;;;2.15;1.15;;;23.20;47.80;;;;;;4968680;28;20059;-66
2023/12/21 11:07:50;;;;;;;2.47;0.90;;;23.20;48.00;;;;;;4969559;28;20090;-67
2023/12/21 11:10:21;;;;;;;1.80;1.10;;;23.10;47.90;;;;;;4965516;28;20089;-67
2023/12/21 11:12:47;;;;;;;1.83;1.08;;;23.10;48.00;;;;;;4969066;28;20035;-68
2023/12/21 11:15:14;;;;;;;2.53;1.30;;;23.00;48.10;;;;;;4968930;28;20050;-67
2023/12/21 11:17:43;;;;;;;3.45;1.33;;;23.00;48.20;;;;;;4968948;28;20043;-67
2023/12/21 11:20:12;;;;;;;2.22;0.93;;;22.90;48.30;;;;;;4968777;28;20073;-65
2023/12/21 11:22:40;;;;;;;1.25;0.70;;;22.80;48.30;;;;;;4971142;28;20057;-66
2023/12/21 11:25:12;;;;;;;3.80;1.40;;;22.80;48.40;;;;;;4969687;28;20061;-67
2023/12/21 11:27:39;;;;;;;1.60;1.08;;;22.80;48.50;;;;;;4948078;28;20461;-66
2023/12/21 11:30:12;;;;;;;1.50;0.70;;;22.70;48.60;;;;;;4967672;28;20406;-66
2023/12/21 11:32:42;;;;;;;1.70;0.80;;;22.70;48.70;;;;;;4963729;28;20031;-65
2023/12/21 11:35:19;;;;;;;1.48;1.00;;;22.60;48.70;;;;;;4955938;28;20046;-63
2023/12/21 11:37:45;;;;;;;2.60;0.95;;;22.60;48.70;;;;;;4962327;28;20093;-66
2023/12/21 11:40:14;;;;;;;3.38;1.50;;;22.50;48.80;;;;;;4968187;28;20050;-65
2023/12/21 11:42:46;;;;;;;3.10;1.40;;;22.50;48.90;;;;;;4966584;28;20034;-66
2023/12/21 11:45:11;;;;;;;3.88;1.70;;;22.50;49.00;;;;;;4971200;28;20109;-65
2023/12/21 11:47:37;;;;;;;3.80;1.92;;;22.40;49.00;;;;;;4966260;28;20130;-65
2023/12/21 11:50:07;;;;;;;4.65;2.33;;;22.40;49.10;;;;;;4967525;28;20097;-66
2023/12/21 11:52:33;;;;;;;4.65;2.47;;;22.40;49.10;;;;;;4968424;28;20034;-65
2023/12/21 11:54:59;;;;;;;7.35;2.80;;;22.30;49.20;;;;;;4968317;28;20130;-65
2023/12/21 11:57:28;;;;;;;4.45;2.53;;;22.30;49.20;;;;;;4970930;28;20031;-65
2023/12/21 12:00:15;;;;;;;5.57;2.35;;;22.20;49.20;;;;;;4971108;28;20034;-65
2023/12/21 12:02:44;;;;;;;6.57;3.13;;;22.20;49.20;;;;;;4966508;28;20034;-66
2023/12/21 12:05:20;;;;;;;4.55;2.60;;;22.20;49.20;;;;;;4968357;28;20066;-63
2023/12/21 12:07:47;;;;;;;5.18;2.28;;;22.20;49.30;;;;;;4964575;28;20371;-65
2023/12/21 12:10:13;;;;;;;6.07;2.50;;;22.20;49.30;;;;;;4968120;28;20110;-66
2023/12/21 12:12:40;;;;;;;3.92;2.45;;;22.10;49.20;;;;;;4970135;28;20130;-66
2023/12/21 12:15:07;;;;;;;3.40;2.22;;;22.10;49.30;;;;;;4964545;28;20038;-67
2023/12/21 12:17:38;;;;;;;5.90;2.50;;;22.10;49.30;;;;;;4970167;28;20039;-66
2023/12/21 12:20:05;;;;;;;4.00;2.13;;;22.20;49.30;;;;;;4968171;28;20089;-67
2023/12/21 12:22:30;;;;;;;4.18;1.88;;;22.20;49.20;;;;;;4968215;28;20101;-66
2023/12/21 12:24:56;;;;;;;3.17;2.08;;;22.30;49.00;;;;;;4966186;28;20114;-67
2023/12/21 12:27:21;;;;;;;3.60;1.83;;;22.40;48.90;;;;;;4967204;28;20038;-66
2023/12/21 12:29:47;;;;;;;4.38;2.35;;;22.50;48.50;;;;;;4970973;28;20565;-67
2023/12/21 12:32:13;;;;;;;4.45;1.90;;;22.60;48.30;;;;;;4967561;28;20572;-65
2023/12/21 12:34:38;;;;;;;4.07;2.10;;;22.70;48.10;;;;;;4968619;28;20038;-65
2023/12/21 12:37:04;;;;;;;3.17;1.85;;;22.80;47.90;;;;;;4968212;28;20037;-66
2023/12/21 12:39:31;;;;;;;3.17;1.98;;;22.90;48.00;;;;;;4970631;28;20033;-67
2023/12/21 12:41:57;;;;;;;3.40;1.77;;;23.10;47.50;;;;;;4973561;28;20051;-67